Terminal Aerodrome Forecast
Issued by NWS

Home | Current Version | Previous Version | Graphics & Text | Print | Product List | Glossary On
Versions: 1 2 3 4 5 6 7 8 9 10 11 12 13 14 15
000
FTUS43 KGRB 171400 AAA
TAFAUW
TAF AMD
KAUW 171419Z 1714/1812 10007KT P6SM SCT006 OVC010
      TEMPO 1714/1717 4SM -RA BR BKN006
     FM171700 28010G17KT P6SM BKN025
     FM172200 29009KT P6SM BKN035
     FM180300 31004KT P6SM SCT035=

USA.gov is the U.S. government's official web portal to all federal, state and local government web resources and services.